الصفحة الرئيسية
METAR-TAF:

METAR-TAF

مطار :

Futuna, فرنسا

دائرة عرض: 14-19S, خط طول: 178-07W, ارتفاع: 6 متر

METAR: مفقودة

زمن: 04:38 (16:38 UTC)

توقعات

تاريخ ووقت الإصدار 5ساعات و 38 دقيقة قبل الساعة 11:00UTC
التوقعات صالحة من22 الساعة 12 UTC إلى 23 الساعة 12 UTC
ريح 2 عقدةمن اتجاهات متغيرة
الرؤية 10 كم أو أكثر
غيوم متفرقة على ارتفاع 2000 قدم
غيوم متفرقة على ارتفاع 3500 قدم
مؤقت
من 22 الساعة 12 UTC إلى 22 الساعة 24 UTC
الرؤية: 4000 متر
غيوم مفككة على ارتفاع 1400 قدم
غيوم قليلة على ارتفاع 2000 قدم, مزن ركامية عمودية.
زخات من المطر
نظرية الاحتمالات 40% :
مؤقت
من 23 الساعة 00 UTC إلى 23 الساعة 06 UTC
الرؤية: 2000 متر
غيوم مفككة على ارتفاع 1000 قدم
غيوم متفرقة على ارتفاع 2000 قدم, مزنة ركامية.
عاصفة رعدية, مطر

TAF: NLWF 221100Z 2212/2312 VRB02KT 9999 SCT020 SCT035 TEMPO 2212/2224 4000 SHRA BKN014 FEW020TCU PROB40 TEMPO 2300/2306 2000 TSRA BKN010 SCT020CB

أرصاد الطقس والتوقعات من أكثر من 4000 مطار (تقارير الطقس للمطار METAR والتنبؤ بالطقس بالمطارTAF).

المحطات المتاحة هي النقط الصفراء والحمراء على الخريطة.

حرك المؤشر فوق النقطة لمعرفة اسم المحطة.

ثم انقر لمعرفة أرصاد وتوقعات الطقس.

لتغيير الخارطة: اضغط على الأزرار الخضراء مع رمز الصليب الأسود للتكبير. على الزر الأخضر مع شرطة للتصغير، أو على الأسهم الخضراء للخرائط المجاورة.


METAR-TAF: